Time;durP1;ratioP1;P1;durP2;ratioP2;P2;SDS_P1;SDS_P2;PMS_P1;PMS_P2;Temp;Humidity;BMP_temperature;BMP_pressure;BME280_temperature;BME280_humidity;BME280_pressure;Samples;Min_cycle;Max_cycle;Signal;HPM_P1;HPM_P2
2022/11/10 00:00:53;;;;;;;32.05;14.32;;;;;;;;;;4932499;28;20089;-64
2022/11/10 00:03:19;;;;;;;26.08;13.50;;;;;;;;;;4931904;28;20041;-64
2022/11/10 00:05:44;;;;;;;28.52;12.95;;;;;;;;;;4932803;28;20053;-63
2022/11/10 00:08:11;;;;;;;29.27;13.27;;;;;;;;;;4932155;28;20057;-64
2022/11/10 00:11:00;;;;;;;29.08;13.60;;;;;;;;;;4933279;28;20508;-64
2022/11/10 00:13:30;;;;;;;29.60;14.40;;;;;;;;;;4931820;28;20038;-64
2022/11/10 00:18:46;;;;;;;28.08;13.10;;;;;;;;;;4933607;28;20456;-64
2022/11/10 00:21:14;;;;;;;25.58;13.77;;;;;;;;;;4933231;28;20448;-65
2022/11/10 00:23:40;;;;;;;25.88;12.65;;;;;;;;;;4933182;28;20615;-64
2022/11/10 00:26:19;;;;;;;25.00;12.45;;;;;;;;;;4932440;28;20124;-64
2022/11/10 00:28:45;;;;;;;27.88;13.00;;;;;;;;;;4932500;28;20524;-64
2022/11/10 00:31:11;;;;;;;26.88;13.27;;;;;;;;;;4946475;28;20444;-64
2022/11/10 00:33:39;;;;;;;28.30;12.93;;;;;;;;;;4931936;28;20313;-64
2022/11/10 00:36:05;;;;;;;27.53;13.77;;;;;;;;;;4931893;28;20535;-64
2022/11/10 00:38:31;;;;;;;24.90;12.77;;;;;;;;;;4931740;28;20740;-64
2022/11/10 00:41:00;;;;;;;26.48;12.07;;;;;;;;;;4932074;28;20492;-64
2022/11/10 00:43:27;;;;;;;23.08;11.95;;;;;;;;;;4931019;28;20341;-64
2022/11/10 00:45:53;;;;;;;25.85;11.82;;;;;;;;;;4931921;28;20440;-64
2022/11/10 00:48:18;;;;;;;25.10;11.32;;;;;;;;;;4931373;28;20444;-64
2022/11/10 00:50:44;;;;;;;28.40;13.40;;;;;;;;;;4931763;28;20517;-64
2022/11/10 00:53:09;;;;;;;23.55;11.10;;;;;;;;;;4932149;28;20448;-64
2022/11/10 00:55:37;;;;;;;23.75;11.88;;;;;;;;;;4931939;28;20440;-63
2022/11/10 00:58:03;;;;;;;28.08;12.60;;;;;;;;;;4932004;28;20382;-64
2022/11/10 01:00:29;;;;;;;26.80;12.82;;;;;;;;;;4931258;28;20365;-64
2022/11/10 01:02:54;;;;;;;23.20;11.85;;;;;;;;;;4923370;28;20440;-64
2022/11/10 01:05:20;;;;;;;20.90;10.30;;;;;;;;;;4913061;28;20031;-64
2022/11/10 01:07:46;;;;;;;22.42;11.13;;;;;;;;;;4912998;28;20434;-64
2022/11/10 01:10:11;;;;;;;24.20;11.13;;;;;;;;;;4897566;28;20500;-64
2022/11/10 01:12:37;;;;;;;24.17;10.98;;;;;;;;;;4911918;28;20023;-64
2022/11/10 01:15:03;;;;;;;21.08;11.23;;;;;;;;;;4912321;28;20453;-63
2022/11/10 01:17:29;;;;;;;21.58;10.80;;;;;;;;;;4911787;28;20478;-64
2022/11/10 01:19:55;;;;;;;23.50;10.95;;;;;;;;;;4911581;28;20413;-64
2022/11/10 01:22:20;;;;;;;19.58;9.95;;;;;;;;;;4912277;28;20442;-63
2022/11/10 01:24:46;;;;;;;21.45;10.63;;;;;;;;;;4912021;28;20512;-64
2022/11/10 01:27:11;;;;;;;18.40;10.50;;;;;;;;;;4913382;28;20437;-63
2022/11/10 01:29:37;;;;;;;23.42;10.40;;;;;;;;;;4912085;28;20510;-64
2022/11/10 01:32:02;;;;;;;20.05;9.75;;;;;;;;;;4911858;28;20379;-64
2022/11/10 01:34:28;;;;;;;19.77;10.57;;;;;;;;;;4911679;28;20378;-63
2022/11/10 01:36:53;;;;;;;20.98;10.50;;;;;;;;;;4911832;28;20023;-64
2022/11/10 01:39:19;;;;;;;19.08;10.18;;;;;;;;;;4912157;28;20438;-63
2022/11/10 01:41:44;;;;;;;20.10;10.07;;;;;;;;;;4912710;28;20386;-63
2022/11/10 01:44:17;;;;;;;21.42;10.55;;;;;;;;;;4911364;28;20061;-67
2022/11/10 01:46:43;;;;;;;20.55;9.93;;;;;;;;;;4912228;28;20138;-63
2022/11/10 01:49:09;;;;;;;20.88;9.88;;;;;;;;;;4911855;28;20061;-64
2022/11/10 01:51:59;;;;;;;18.17;10.88;;;;;;;;;;4909604;28;20460;-64
2022/11/10 01:54:29;;;;;;;18.50;9.27;;;;;;;;;;4910081;28;20077;-64
2022/11/10 01:57:01;;;;;;;18.83;9.32;;;;;;;;;;4911504;28;20497;-64
2022/11/10 01:59:31;;;;;;;21.42;10.20;;;;;;;;;;4910745;28;20027;-64
2022/11/10 02:02:12;;;;;;;21.08;10.52;;;;;;;;;;4925799;28;20365;-63
2022/11/10 02:04:40;;;;;;;16.67;9.68;;;;;;;;;;4911208;28;20457;-64
2022/11/10 02:07:06;;;;;;;18.80;9.88;;;;;;;;;;4909583;28;20419;-64
2022/11/10 02:09:32;;;;;;;16.55;9.00;;;;;;;;;;4911662;28;20430;-64
2022/11/10 02:11:58;;;;;;;17.45;8.68;;;;;;;;;;4911341;28;20470;-64
2022/11/10 02:14:24;;;;;;;23.98;9.55;;;;;;;;;;4910982;28;20114;-64
2022/11/10 02:16:49;;;;;;;17.50;9.15;;;;;;;;;;4911339;28;20043;-63
2022/11/10 02:19:21;;;;;;;16.98;9.30;;;;;;;;;;4910799;28;20467;-64
2022/11/10 02:21:46;;;;;;;20.15;10.10;;;;;;;;;;4910961;28;20357;-64
2022/11/10 02:24:12;;;;;;;18.25;9.40;;;;;;;;;;4910584;28;20345;-63
2022/11/10 02:27:04;;;;;;;21.58;10.77;;;;;;;;;;4911032;28;20445;-64
2022/11/10 02:29:29;;;;;;;19.10;9.60;;;;;;;;;;4909694;28;20051;-64
2022/11/10 02:31:55;;;;;;;14.40;8.23;;;;;;;;;;4911104;28;20453;-63
2022/11/10 02:34:20;;;;;;;19.00;9.18;;;;;;;;;;4910955;28;20532;-64
2022/11/10 02:36:46;;;;;;;17.98;9.75;;;;;;;;;;4910516;28;20559;-64
2022/11/10 02:39:11;;;;;;;16.70;8.80;;;;;;;;;;4911045;28;20093;-64
2022/11/10 02:41:37;;;;;;;16.05;7.75;;;;;;;;;;4910589;28;20303;-63
2022/11/10 02:44:03;;;;;;;16.17;8.13;;;;;;;;;;4910675;28;20507;-64
2022/11/10 02:46:29;;;;;;;16.65;9.43;;;;;;;;;;4910958;28;20454;-64
2022/11/10 02:48:54;;;;;;;18.00;9.10;;;;;;;;;;4911210;28;20355;-64
2022/11/10 02:51:20;;;;;;;17.15;8.23;;;;;;;;;;4912158;28;20438;-63
2022/11/10 02:53:45;;;;;;;18.38;8.85;;;;;;;;;;4910485;28;20371;-64
2022/11/10 02:56:11;;;;;;;15.23;8.35;;;;;;;;;;4911028;28;20692;-64
2022/11/10 02:58:36;;;;;;;13.70;8.00;;;;;;;;;;4923349;28;20034;-63
2022/11/10 03:01:05;;;;;;;15.70;8.45;;;;;;;;;;4930025;28;20380;-64
2022/11/10 03:03:31;;;;;;;16.88;7.75;;;;;;;;;;4929634;28;20441;-64
2022/11/10 03:05:57;;;;;;;14.85;8.13;;;;;;;;;;4929898;28;20508;-63
2022/11/10 03:08:22;;;;;;;13.77;7.35;;;;;;;;;;4929536;28;20049;-64
2022/11/10 03:10:54;;;;;;;13.27;7.47;;;;;;;;;;4929757;28;20408;-63
2022/11/10 03:13:19;;;;;;;13.52;7.45;;;;;;;;;;4931646;28;20022;-63
2022/11/10 03:15:47;;;;;;;16.13;7.57;;;;;;;;;;4930225;28;20451;-64
2022/11/10 03:18:12;;;;;;;14.10;7.55;;;;;;;;;;4929995;28;20310;-64
2022/11/10 03:20:38;;;;;;;13.43;7.55;;;;;;;;;;4933036;28;20359;-64
2022/11/10 03:23:04;;;;;;;17.17;8.70;;;;;;;;;;4934354;28;20438;-64
2022/11/10 03:25:30;;;;;;;15.00;8.10;;;;;;;;;;4933571;28;20026;-64
2022/11/10 03:27:55;;;;;;;14.30;7.55;;;;;;;;;;4933830;28;20058;-63
2022/11/10 03:30:21;;;;;;;13.48;8.02;;;;;;;;;;4934159;28;20066;-64
2022/11/10 03:32:46;;;;;;;14.63;7.78;;;;;;;;;;4933596;28;20393;-64
2022/11/10 03:35:12;;;;;;;13.18;7.43;;;;;;;;;;4934688;28;20510;-64
2022/11/10 03:37:41;;;;;;;14.65;7.43;;;;;;;;;;4934193;28;20441;-64
2022/11/10 03:40:08;;;;;;;;;;;;;;;;;;4934798;28;20368;-64
2022/11/10 03:42:33;;;;;;;15.45;8.18;;;;;;;;;;4932339;28;20312;-64
2022/11/10 03:44:59;;;;;;;12.80;7.22;;;;;;;;;;4933340;28;20487;-63
2022/11/10 03:47:24;;;;;;;11.85;7.30;;;;;;;;;;4933289;28;20026;-64
2022/11/10 03:49:50;;;;;;;14.77;7.65;;;;;;;;;;4932949;28;20512;-64
2022/11/10 03:52:15;;;;;;;14.13;7.82;;;;;;;;;;4933295;28;20477;-63
2022/11/10 03:54:41;;;;;;;15.82;7.63;;;;;;;;;;4932955;28;20512;-63
2022/11/10 03:57:07;;;;;;;10.98;6.82;;;;;;;;;;4932927;28;20295;-63
2022/11/10 03:59:32;;;;;;;12.77;7.13;;;;;;;;;;4933029;28;20687;-63
2022/11/10 04:01:58;;;;;;;12.88;7.30;;;;;;;;;;4933050;28;20465;-64
2022/11/10 04:09:56;;;;;;;12.80;6.93;;;;;;;;;;4933655;28;20403;-63
2022/11/10 04:17:51;;;;;;;11.10;6.32;;;;;;;;;;4933425;28;20404;-63
2022/11/10 04:20:17;;;;;;;12.27;6.75;;;;;;;;;;4932540;28;20429;-64
2022/11/10 04:25:26;;;;;;;12.50;6.13;;;;;;;;;;4932439;28;20373;-64
2022/11/10 04:27:52;;;;;;;11.15;6.00;;;;;;;;;;4932203;28;20412;-64
2022/11/10 04:30:17;;;;;;;13.48;7.40;;;;;;;;;;4932288;28;20457;-64
2022/11/10 04:32:43;;;;;;;12.48;6.60;;;;;;;;;;4932542;28;20303;-64
2022/11/10 04:35:08;;;;;;;13.27;6.40;;;;;;;;;;4932458;28;20521;-64
2022/11/10 04:37:34;;;;;;;11.70;6.97;;;;;;;;;;4933268;28;20023;-63
2022/11/10 04:39:59;;;;;;;13.23;5.90;;;;;;;;;;4932319;28;20479;-64
2022/11/10 04:42:25;;;;;;;9.52;6.63;;;;;;;;;;4932321;28;20424;-64
2022/11/10 04:44:50;;;;;;;10.13;6.10;;;;;;;;;;4931722;28;20038;-64
2022/11/10 04:47:15;;;;;;;11.80;6.28;;;;;;;;;;4932884;28;20410;-64
2022/11/10 04:49:41;;;;;;;9.25;5.60;;;;;;;;;;4932411;28;20400;-63
2022/11/10 04:52:06;;;;;;;10.90;6.60;;;;;;;;;;4932091;28;20491;-64
2022/11/10 04:54:32;;;;;;;11.38;5.95;;;;;;;;;;4931803;28;20034;-64
2022/11/10 04:56:57;;;;;;;11.82;6.35;;;;;;;;;;4931891;28;20365;-64
2022/11/10 04:59:23;;;;;;;10.90;6.32;;;;;;;;;;4931700;28;20361;-64
2022/11/10 05:01:48;;;;;;;10.98;6.35;;;;;;;;;;4931977;28;20092;-63
2022/11/10 05:04:14;;;;;;;11.13;6.07;;;;;;;;;;4931572;28;20376;-64
2022/11/10 05:06:39;;;;;;;9.65;5.78;;;;;;;;;;4931491;28;20518;-64
2022/11/10 05:09:05;;;;;;;8.18;5.38;;;;;;;;;;4932442;28;20418;-65
2022/11/10 05:11:30;;;;;;;11.50;5.43;;;;;;;;;;4932340;28;20363;-64
2022/11/10 05:13:56;;;;;;;10.77;5.75;;;;;;;;;;4931357;28;20076;-64
2022/11/10 05:16:21;;;;;;;10.82;5.47;;;;;;;;;;4931691;28;20434;-64
2022/11/10 05:18:52;;;;;;;10.05;5.63;;;;;;;;;;4931512;28;20373;-64
2022/11/10 05:21:18;;;;;;;9.82;5.50;;;;;;;;;;4931150;28;20031;-64
2022/11/10 05:23:45;;;;;;;13.35;5.95;;;;;;;;;;4932345;28;20428;-63
2022/11/10 05:26:16;;;;;;;11.50;6.50;;;;;;;;;;4932412;28;20026;-63
2022/11/10 05:28:44;;;;;;;9.77;5.78;;;;;;;;;;4930758;28;20456;-64
2022/11/10 05:31:11;;;;;;;10.60;5.47;;;;;;;;;;4931187;28;20321;-63
2022/11/10 05:33:37;;;;;;;10.45;6.07;;;;;;;;;;4931201;28;20325;-64
2022/11/10 05:36:05;;;;;;;9.23;5.68;;;;;;;;;;4931002;28;20097;-63
2022/11/10 05:38:31;;;;;;;10.77;6.00;;;;;;;;;;4929579;28;20556;-63
2022/11/10 05:40:56;;;;;;;12.20;6.05;;;;;;;;;;4930998;28;20422;-63
2022/11/10 05:43:23;;;;;;;9.60;5.60;;;;;;;;;;4929446;28;20632;-63
2022/11/10 05:45:48;;;;;;;13.27;5.85;;;;;;;;;;4931748;28;20445;-63
2022/11/10 05:48:14;;;;;;;9.80;5.40;;;;;;;;;;4931889;28;20419;-63
2022/11/10 05:50:42;;;;;;;8.80;5.75;;;;;;;;;;4931058;28;20418;-64
2022/11/10 05:53:07;;;;;;;9.00;5.50;;;;;;;;;;4931041;28;20433;-63
2022/11/10 05:55:33;;;;;;;9.88;5.25;;;;;;;;;;4929974;28;20516;-63
2022/11/10 05:57:58;;;;;;;9.48;5.78;;;;;;;;;;4932422;28;20433;-64
2022/11/10 06:00:28;;;;;;;8.50;4.85;;;;;;;;;;4931545;28;20460;-63
2022/11/10 06:03:15;;;;;;;10.95;6.30;;;;;;;;;;4930220;28;20456;-63
2022/11/10 06:05:41;;;;;;;10.65;6.15;;;;;;;;;;4959471;28;20055;-63
2022/11/10 06:08:06;;;;;;;10.90;5.78;;;;;;;;;;4931303;28;20038;-63
2022/11/10 06:10:34;;;;;;;9.43;5.85;;;;;;;;;;4930309;28;20383;-63
2022/11/10 06:12:59;;;;;;;12.93;5.40;;;;;;;;;;4931493;28;20034;-63
2022/11/10 06:15:25;;;;;;;9.93;6.07;;;;;;;;;;4932172;28;20434;-63
2022/11/10 06:17:51;;;;;;;11.40;5.68;;;;;;;;;;4930417;28;20356;-63
2022/11/10 06:20:17;;;;;;;9.55;5.22;;;;;;;;;;4930648;28;20307;-63
2022/11/10 06:22:57;;;;;;;8.13;4.75;;;;;;;;;;4930378;28;20133;-63
2022/11/10 06:25:23;;;;;;;8.52;5.38;;;;;;;;;;4930364;28;20441;-63
2022/11/10 06:27:48;;;;;;;8.40;5.28;;;;;;;;;;4930417;28;20410;-63
2022/11/10 06:30:14;;;;;;;10.00;5.38;;;;;;;;;;4917568;28;20496;-63
2022/11/10 06:32:43;;;;;;;9.10;5.05;;;;;;;;;;4930255;28;20320;-63
2022/11/10 06:35:09;;;;;;;8.55;4.97;;;;;;;;;;4931581;28;20120;-62
2022/11/10 06:37:34;;;;;;;8.27;5.15;;;;;;;;;;4930015;28;20023;-63
2022/11/10 06:40:00;;;;;;;8.00;4.85;;;;;;;;;;4929832;28;20034;-63
2022/11/10 06:42:25;;;;;;;11.05;5.95;;;;;;;;;;4929901;28;20354;-63
2022/11/10 06:44:51;;;;;;;9.02;5.20;;;;;;;;;;4931271;28;20031;-62
2022/11/10 06:47:16;;;;;;;11.02;5.95;;;;;;;;;;4930009;28;20385;-63
2022/11/10 06:49:42;;;;;;;9.77;5.45;;;;;;;;;;4929984;28;20030;-63
2022/11/10 06:52:07;;;;;;;10.27;5.07;;;;;;;;;;4930196;28;20401;-62
2022/11/10 06:54:33;;;;;;;9.55;5.32;;;;;;;;;;4931505;28;20488;-62
2022/11/10 06:56:58;;;;;;;18.98;5.40;;;;;;;;;;4929874;28;20476;-62
2022/11/10 06:59:24;;;;;;;10.10;5.43;;;;;;;;;;4932236;28;20503;-62
2022/11/10 07:01:49;;;;;;;11.50;6.30;;;;;;;;;;4596821;28;10002200;-62
2022/11/10 07:04:15;;;;;;;10.30;5.82;;;;;;;;;;4938455;28;20437;-62
2022/11/10 07:06:40;;;;;;;10.48;5.55;;;;;;;;;;4930358;28;20408;-62
2022/11/10 07:09:06;;;;;;;10.70;5.60;;;;;;;;;;4931127;28;20310;-62
2022/11/10 07:11:31;;;;;;;10.63;5.72;;;;;;;;;;4929959;28;20429;-62
2022/11/10 07:13:57;;;;;;;9.93;5.18;;;;;;;;;;4929488;28;20649;-61
2022/11/10 07:16:22;;;;;;;8.40;5.13;;;;;;;;;;4929563;28;20026;-62
2022/11/10 07:18:48;;;;;;;11.23;6.00;;;;;;;;;;4929628;28;20038;-62
2022/11/10 07:21:13;;;;;;;8.13;4.70;;;;;;;;;;4930408;28;20392;-62
2022/11/10 07:23:39;;;;;;;10.35;5.47;;;;;;;;;;4929687;28;20160;-62
2022/11/10 07:26:04;;;;;;;10.85;5.28;;;;;;;;;;4928615;28;20356;-62
2022/11/10 07:28:30;;;;;;;10.40;5.35;;;;;;;;;;4929629;28;20444;-62
2022/11/10 07:30:55;;;;;;;8.98;5.00;;;;;;;;;;4929632;28;20464;-62
2022/11/10 07:33:21;;;;;;;9.52;5.18;;;;;;;;;;4929569;28;20428;-61
2022/11/10 07:35:58;;;;;;;9.70;5.32;;;;;;;;;;4929517;28;20026;-62
2022/11/10 07:38:24;;;;;;;9.10;4.85;;;;;;;;;;4928028;28;20331;-61
2022/11/10 07:40:51;;;;;;;11.70;5.53;;;;;;;;;;4931500;28;20034;-61
2022/11/10 07:43:19;;;;;;;10.45;5.07;;;;;;;;;;4928834;28;20466;-61
2022/11/10 07:45:45;;;;;;;10.20;5.85;;;;;;;;;;4929481;28;20038;-64
2022/11/10 07:48:10;;;;;;;10.88;5.47;;;;;;;;;;4930761;28;20456;-61
2022/11/10 07:50:36;;;;;;;8.95;5.72;;;;;;;;;;4929409;28;20506;-62
2022/11/10 07:53:10;;;;;;;10.30;5.72;;;;;;;;;;4930509;28;20053;-61
2022/11/10 07:55:38;;;;;;;8.55;5.55;;;;;;;;;;4930132;28;20361;-61
2022/11/10 07:58:04;;;;;;;8.25;5.20;;;;;;;;;;4929228;28;20395;-61
2022/11/10 08:00:31;;;;;;;14.98;7.10;;;;;;;;;;4930935;28;20393;-61
2022/11/10 08:03:04;;;;;;;9.00;5.25;;;;;;;;;;4929072;28;20497;-61
2022/11/10 08:05:31;;;;;;;11.07;5.85;;;;;;;;;;4929524;28;20364;-62
2022/11/10 08:07:56;;;;;;;13.77;5.70;;;;;;;;;;4931428;28;20116;-61
2022/11/10 08:10:22;;;;;;;11.38;6.22;;;;;;;;;;4932665;28;20117;-61
2022/11/10 08:12:57;;;;;;;9.70;5.03;;;;;;;;;;4932590;28;20089;-61
2022/11/10 08:15:24;;;;;;;11.23;5.10;;;;;;;;;;4932914;28;20022;-61
2022/11/10 08:17:49;;;;;;;9.85;5.68;;;;;;;;;;4932250;28;20372;-61
2022/11/10 08:20:16;;;;;;;9.35;6.05;;;;;;;;;;4932929;28;20322;-61
2022/11/10 08:22:42;;;;;;;9.10;5.30;;;;;;;;;;4932618;28;20464;-61
2022/11/10 08:25:09;;;;;;;9.30;5.32;;;;;;;;;;4932191;28;20356;-61
2022/11/10 08:27:34;;;;;;;10.23;5.78;;;;;;;;;;4932442;28;20437;-61
2022/11/10 08:30:00;;;;;;;9.73;5.95;;;;;;;;;;4932583;28;20374;-61
2022/11/10 08:32:25;;;;;;;9.70;5.28;;;;;;;;;;4932715;28;20461;-61
2022/11/10 08:34:51;;;;;;;8.30;5.38;;;;;;;;;;4931969;28;20454;-61
2022/11/10 08:37:16;;;;;;;11.05;6.18;;;;;;;;;;4932454;28;20468;-61
2022/11/10 08:39:42;;;;;;;11.82;6.63;;;;;;;;;;4933731;28;20345;-61
2022/11/10 08:42:07;;;;;;;9.63;5.90;;;;;;;;;;4929799;28;20429;-61
2022/11/10 08:44:33;;;;;;;10.88;5.95;;;;;;;;;;4930400;28;20034;-61
2022/11/10 08:46:58;;;;;;;11.27;5.75;;;;;;;;;;4932159;28;20480;-61
2022/11/10 08:49:24;;;;;;;11.20;5.30;;;;;;;;;;4931646;28;20418;-60
2022/11/10 08:51:49;;;;;;;11.57;6.20;;;;;;;;;;4932236;28;20322;-61
2022/11/10 08:54:15;;;;;;;9.95;5.50;;;;;;;;;;4931938;28;20442;-62
2022/11/10 08:56:40;;;;;;;12.07;6.28;;;;;;;;;;4931655;28;20330;-61
2022/11/10 08:59:06;;;;;;;10.30;5.82;;;;;;;;;;4931790;28;20361;-61
2022/11/10 09:01:31;;;;;;;11.82;6.07;;;;;;;;;;4931714;28;20298;-61
2022/11/10 09:03:56;;;;;;;11.75;6.15;;;;;;;;;;4931741;28;20499;-61
2022/11/10 09:06:22;;;;;;;10.55;6.28;;;;;;;;;;4932644;28;20499;-61
2022/11/10 09:08:48;;;;;;;11.45;6.70;;;;;;;;;;4931382;28;20389;-61
2022/11/10 09:11:14;;;;;;;12.32;6.95;;;;;;;;;;4932409;28;20389;-62
2022/11/10 09:13:39;;;;;;;9.95;6.18;;;;;;;;;;4931170;28;20034;-61
2022/11/10 09:16:05;;;;;;;12.77;6.72;;;;;;;;;;4933396;28;20409;-61
2022/11/10 09:18:31;;;;;;;10.55;6.63;;;;;;;;;;4931447;28;20089;-62
2022/11/10 09:20:57;;;;;;;11.02;6.20;;;;;;;;;;4931419;28;20053;-61
2022/11/10 09:23:23;;;;;;;10.15;6.15;;;;;;;;;;4931351;28;20435;-61
2022/11/10 09:25:52;;;;;;;8.13;5.70;;;;;;;;;;4931199;28;20531;-61
2022/11/10 09:28:18;;;;;;;;;;;;;;;;;;4931690;28;20416;-61
2022/11/10 09:30:45;;;;;;;8.63;5.13;;;;;;;;;;4931094;28;20240;-61
2022/11/10 09:33:11;;;;;;;10.55;6.00;;;;;;;;;;4931288;28;20467;-61
2022/11/10 09:35:37;;;;;;;10.68;5.88;;;;;;;;;;4931409;28;20334;-61
2022/11/10 09:38:03;;;;;;;9.93;5.97;;;;;;;;;;4931145;28;20437;-61
2022/11/10 09:41:08;;;;;;;10.00;5.70;;;;;;;;;;4931075;28;20425;-61
2022/11/10 09:44:17;;;;;;;11.45;6.82;;;;;;;;;;4930646;28;20519;-61
2022/11/10 09:47:04;;;;;;;8.07;5.85;;;;;;;;;;4931097;28;20373;-61
2022/11/10 09:49:38;;;;;;;10.52;5.70;;;;;;;;;;4929459;28;20075;-61
2022/11/10 09:52:05;;;;;;;8.60;5.25;;;;;;;;;;4929302;28;20573;-61
2022/11/10 09:54:52;;;;;;;12.30;6.15;;;;;;;;;;4930595;28;20441;-61
2022/11/10 09:57:23;;;;;;;13.88;7.05;;;;;;;;;;4930770;28;20441;-61
2022/11/10 09:59:49;;;;;;;14.13;6.68;;;;;;;;;;4929250;28;20050;-61
2022/11/10 10:03:04;;;;;;;10.90;6.35;;;;;;;;;;4929165;28;20109;-61
2022/11/10 10:05:55;;;;;;;12.02;7.10;;;;;;;;;;4909446;28;20382;-61
2022/11/10 10:09:08;;;;;;;9.65;6.07;;;;;;;;;;4931365;28;20038;-61
2022/11/10 10:12:00;;;;;;;13.15;7.10;;;;;;;;;;4930314;28;20349;-60
2022/11/10 10:15:14;;;;;;;10.00;6.10;;;;;;;;;;4930013;28;20483;-61
2022/11/10 10:18:24;;;;;;;11.73;6.47;;;;;;;;;;4926449;28;20449;-61
2022/11/10 10:21:35;;;;;;;11.05;5.55;;;;;;;;;;4893599;28;20503;-61
2022/11/10 10:24:01;;;;;;;9.38;5.43;;;;;;;;;;4930398;28;20408;-61
2022/11/10 10:26:36;;;;;;;11.63;6.72;;;;;;;;;;4928825;28;20451;-61
2022/11/10 10:29:26;;;;;;;12.57;6.47;;;;;;;;;;4929148;28;20038;-61
2022/11/10 10:31:52;;;;;;;13.10;7.03;;;;;;;;;;4930092;28;20124;-61
2022/11/10 10:34:23;;;;;;;11.40;6.38;;;;;;;;;;4930973;28;20310;-61
2022/11/10 10:36:49;;;;;;;11.65;6.40;;;;;;;;;;4930901;28;20418;-61
2022/11/10 10:39:40;;;;;;;12.02;5.88;;;;;;;;;;4930326;28;20355;-61
2022/11/10 10:42:21;;;;;;;12.73;6.60;;;;;;;;;;4930693;28;20396;-61
2022/11/10 10:45:16;;;;;;;10.75;6.13;;;;;;;;;;4928383;28;20491;-61
2022/11/10 10:47:42;;;;;;;8.98;5.57;;;;;;;;;;4928016;28;20338;-60
2022/11/10 10:50:27;;;;;;;9.38;5.60;;;;;;;;;;4929086;28;20445;-61
2022/11/10 10:53:14;;;;;;;11.15;6.40;;;;;;;;;;4928557;28;20049;-61
2022/11/10 10:56:00;;;;;;;11.55;6.28;;;;;;;;;;4930123;28;20372;-61
2022/11/10 10:58:33;;;;;;;11.23;6.40;;;;;;;;;;4929897;28;20358;-61
2022/11/10 11:01:18;;;;;;;9.98;6.05;;;;;;;;;;4928476;28;20108;-61
2022/11/10 11:03:51;;;;;;;8.40;5.47;;;;;;;;;;4929660;28;20337;-61
2022/11/10 11:06:17;;;;;;;11.05;6.22;;;;;;;;;;4929814;28;20038;-61
2022/11/10 11:08:57;;;;;;;8.98;5.57;;;;;;;;;;4929842;28;20413;-61
2022/11/10 11:11:38;;;;;;;10.93;5.80;;;;;;;;;;4930338;28;20026;-61
2022/11/10 11:14:26;;;;;;;10.40;5.43;;;;;;;;;;4929643;28;20449;-61
2022/11/10 11:16:59;;;;;;;11.57;6.35;;;;;;;;;;4931213;28;20461;-61
2022/11/10 11:19:31;;;;;;;10.90;5.95;;;;;;;;;;4930010;28;20022;-61
2022/11/10 11:22:18;;;;;;;9.38;5.13;;;;;;;;;;4929997;28;20095;-61
2022/11/10 11:25:12;;;;;;;10.23;5.38;;;;;;;;;;4929550;28;20429;-61
2022/11/10 11:28:15;;;;;;;9.65;5.60;;;;;;;;;;4929993;28;20437;-61
2022/11/10 11:30:54;;;;;;;9.50;5.75;;;;;;;;;;4929589;28;20440;-61
2022/11/10 11:33:24;;;;;;;9.25;4.75;;;;;;;;;;4929787;28;20108;-61
2022/11/10 11:36:24;;;;;;;9.20;5.82;;;;;;;;;;4929735;28;20453;-61
2022/11/10 11:38:59;;;;;;;11.43;5.85;;;;;;;;;;4930290;28;20058;-60
2022/11/10 11:42:09;;;;;;;11.95;5.93;;;;;;;;;;4930346;28;20421;-61
2022/11/10 11:44:49;;;;;;;9.63;5.22;;;;;;;;;;4932954;28;20453;-61
2022/11/10 11:47:55;;;;;;;10.43;5.25;;;;;;;;;;4933310;28;20026;-61
2022/11/10 11:50:29;;;;;;;10.55;5.60;;;;;;;;;;4932852;28;20471;-61
2022/11/10 11:53:23;;;;;;;9.93;5.97;;;;;;;;;;4934098;28;20030;-60
2022/11/10 11:56:09;;;;;;;8.40;5.18;;;;;;;;;;4933495;28;20108;-61
2022/11/10 11:59:13;;;;;;;8.95;5.47;;;;;;;;;;4931723;28;20441;-60
2022/11/10 12:02:09;;;;;;;9.05;5.63;;;;;;;;;;4933351;28;20376;-60
2022/11/10 12:05:07;;;;;;;10.43;5.45;;;;;;;;;;4932841;28;20042;-60
2022/11/10 12:08:04;;;;;;;9.13;5.07;;;;;;;;;;4931851;28;20030;-61
2022/11/10 12:11:17;;;;;;;8.90;5.05;;;;;;;;;;4933192;28;20057;-61
2022/11/10 12:14:07;;;;;;;10.02;6.00;;;;;;;;;;4933667;28;20034;-60
2022/11/10 12:16:34;;;;;;;8.10;4.97;;;;;;;;;;4932307;28;20393;-61
2022/11/10 12:19:32;;;;;;;11.90;5.13;;;;;;;;;;4931024;28;20421;-60
2022/11/10 12:22:00;;;;;;;11.00;4.85;;;;;;;;;;4932736;28;20448;-60
2022/11/10 12:24:35;;;;;;;9.18;4.53;;;;;;;;;;4926392;28;20069;-60
2022/11/10 12:27:16;;;;;;;9.27;5.40;;;;;;;;;;4955098;28;20489;-61
2022/11/10 12:29:58;;;;;;;10.02;4.68;;;;;;;;;;4930788;28;20098;-60
2022/11/10 12:32:55;;;;;;;8.55;4.57;;;;;;;;;;4957578;28;20440;-60
2022/11/10 12:35:27;;;;;;;8.88;4.93;;;;;;;;;;4933651;28;20420;-61
2022/11/10 12:38:21;;;;;;;9.35;4.63;;;;;;;;;;4930761;28;20539;-60
2022/11/10 12:41:00;;;;;;;8.48;4.68;;;;;;;;;;4931694;28;20377;-61
2022/11/10 12:43:50;;;;;;;8.80;4.22;;;;;;;;;;4930661;28;20505;-61
2022/11/10 12:46:15;;;;;;;7.88;4.65;;;;;;;;;;4931918;28;20092;-61
2022/11/10 12:48:56;;;;;;;8.82;4.60;;;;;;;;;;4931921;28;20034;-61
2022/11/10 12:51:48;;;;;;;9.10;5.15;;;;;;;;;;4933039;28;20373;-61
2022/11/10 12:54:16;;;;;;;8.18;4.93;;;;;;;;;;4930305;28;20034;-61
2022/11/10 12:56:58;;;;;;;8.83;4.97;;;;;;;;;;4929997;28;20337;-61
2022/11/10 12:59:33;;;;;;;12.43;5.80;;;;;;;;;;4930369;28;20332;-61
2022/11/10 13:02:32;;;;;;;8.65;4.88;;;;;;;;;;4931681;28;20405;-61
2022/11/10 13:05:32;;;;;;;8.80;5.25;;;;;;;;;;4931352;28;20482;-61
2022/11/10 13:08:19;;;;;;;8.77;4.60;;;;;;;;;;4924702;28;20483;-61
2022/11/10 13:11:02;;;;;;;6.43;4.50;;;;;;;;;;4931138;28;20057;-60
2022/11/10 13:13:28;;;;;;;6.95;4.22;;;;;;;;;;4930254;28;20361;-60
2022/11/10 13:15:56;;;;;;;8.38;4.85;;;;;;;;;;4930335;28;20088;-61
2022/11/10 13:18:29;;;;;;;7.75;4.72;;;;;;;;;;4931339;28;20388;-60
2022/11/10 13:20:56;;;;;;;8.07;4.60;;;;;;;;;;4931609;28;20026;-61
2022/11/10 13:23:30;;;;;;;7.68;4.35;;;;;;;;;;4932668;28;20416;-61
2022/11/10 13:26:38;;;;;;;6.55;3.75;;;;;;;;;;4931426;28;20069;-60
2022/11/10 13:29:54;;;;;;;10.02;4.88;;;;;;;;;;4925265;28;20356;-60
2022/11/10 13:32:29;;;;;;;9.48;4.72;;;;;;;;;;4931165;28;20392;-60
2022/11/10 13:35:29;;;;;;;9.20;4.63;;;;;;;;;;4931457;28;20044;-61
2022/11/10 13:37:56;;;;;;;11.02;4.95;;;;;;;;;;4931350;28;20418;-60
2022/11/10 13:40:24;;;;;;;6.95;4.05;;;;;;;;;;4929671;28;20319;-60
2022/11/10 13:42:56;;;;;;;6.32;3.60;;;;;;;;;;4930604;28;20467;-61
2022/11/10 13:45:42;;;;;;;7.68;4.32;;;;;;;;;;4930929;28;20030;-60
2022/11/10 13:48:10;;;;;;;11.00;4.97;;;;;;;;;;4929667;28;20134;-60
2022/11/10 13:51:15;;;;;;;8.02;4.38;;;;;;;;;;4931034;28;20464;-61
2022/11/10 13:54:14;;;;;;;11.10;5.82;;;;;;;;;;4930556;28;20385;-61
2022/11/10 13:57:07;;;;;;;6.80;4.38;;;;;;;;;;4929262;28;20052;-60
2022/11/10 13:59:51;;;;;;;9.93;5.13;;;;;;;;;;4929135;28;20453;-61
2022/11/10 14:02:32;;;;;;;8.93;4.78;;;;;;;;;;4929175;28;20341;-61
2022/11/10 14:05:03;;;;;;;8.23;5.05;;;;;;;;;;4930110;28;20034;-60
2022/11/10 14:07:41;;;;;;;12.57;6.97;;;;;;;;;;4930451;28;20533;-60
2022/11/10 14:10:16;;;;;;;10.85;6.15;;;;;;;;;;4930749;28;20445;-60
2022/11/10 14:12:52;;;;;;;17.20;7.75;;;;;;;;;;4928897;28;20345;-61
2022/11/10 14:15:38;;;;;;;11.43;5.57;;;;;;;;;;4930347;28;20461;-61
2022/11/10 14:18:23;;;;;;;13.68;7.82;;;;;;;;;;4929953;28;20027;-60
2022/11/10 14:21:00;;;;;;;14.02;7.68;;;;;;;;;;4928894;28;20460;-61
2022/11/10 14:23:46;;;;;;;15.98;7.63;;;;;;;;;;4930612;28;20440;-60
2022/11/10 14:26:35;;;;;;;16.45;7.40;;;;;;;;;;4928959;28;20429;-61
2022/11/10 14:29:20;;;;;;;16.45;8.93;;;;;;;;;;4928602;28;20037;-60
2022/11/10 14:31:46;;;;;;;15.38;7.97;;;;;;;;;;4930595;28;20446;-60
2022/11/10 14:34:16;;;;;;;17.45;8.55;;;;;;;;;;4930101;28;20495;-60
2022/11/10 14:36:54;;;;;;;14.40;8.05;;;;;;;;;;4930268;28;20437;-61
2022/11/10 14:39:31;;;;;;;18.35;8.82;;;;;;;;;;4930017;28;20325;-60
2022/11/10 14:42:03;;;;;;;17.55;8.30;;;;;;;;;;4929200;28;20038;-61
2022/11/10 14:44:31;;;;;;;17.77;9.30;;;;;;;;;;4929996;28;20401;-61
2022/11/10 14:47:26;;;;;;;18.07;8.63;;;;;;;;;;4929689;28;20350;-61
2022/11/10 14:50:11;;;;;;;19.45;9.32;;;;;;;;;;4930361;28;20441;-62
2022/11/10 14:52:40;;;;;;;15.32;8.48;;;;;;;;;;4931363;28;20349;-61
2022/11/10 14:55:12;;;;;;;18.80;9.35;;;;;;;;;;4931594;28;20413;-60
2022/11/10 14:57:39;;;;;;;16.70;8.35;;;;;;;;;;4930395;28;20045;-61
2022/11/10 15:00:16;;;;;;;17.52;9.20;;;;;;;;;;4930543;28;20290;-61
2022/11/10 15:02:42;;;;;;;20.00;10.27;;;;;;;;;;4929584;28;20034;-61
2022/11/10 15:05:13;;;;;;;15.68;8.85;;;;;;;;;;4928745;28;20084;-61
2022/11/10 15:07:39;;;;;;;15.07;8.98;;;;;;;;;;4928232;28;20113;-60
2022/11/10 15:10:15;;;;;;;16.65;9.77;;;;;;;;;;4928516;28;20034;-60
2022/11/10 15:12:41;;;;;;;22.20;10.45;;;;;;;;;;4931009;28;20361;-61
2022/11/10 15:15:22;;;;;;;22.52;11.50;;;;;;;;;;4929312;28;20372;-61
2022/11/10 15:17:50;;;;;;;19.13;10.25;;;;;;;;;;4934344;28;20438;-61
2022/11/10 15:20:38;;;;;;;17.77;9.80;;;;;;;;;;4933611;28;20443;-61